createdAt,value
2024-02-23T00:02:50.286Z,3.88
2024-02-23T00:07:51.837Z,4.47
2024-02-23T00:12:53.375Z,3.85
2024-02-23T00:17:54.921Z,2.78
2024-02-23T00:22:56.524Z,2.67
2024-02-23T00:27:58.017Z,3.08
2024-02-23T00:32:59.646Z,3.38
2024-02-23T00:38:01.183Z,3.15
2024-02-23T00:43:04.138Z,2.63
2024-02-23T00:48:05.910Z,3.47
2024-02-23T00:53:07.460Z,2.58
2024-02-23T00:58:09.006Z,2.40
2024-02-23T01:03:10.539Z,3.92
2024-02-23T01:08:12.119Z,3.50
2024-02-23T01:13:13.653Z,4.10
2024-02-23T01:18:15.393Z,3.28
2024-02-23T01:23:16.975Z,3.67
2024-02-23T01:28:18.522Z,3.05
2024-02-23T01:33:20.114Z,4.60
2024-02-23T01:38:23.054Z,4.78
2024-02-23T01:43:24.591Z,2.60
2024-02-23T01:48:26.260Z,3.17
2024-02-23T01:53:27.929Z,2.78
2024-02-23T01:58:30.883Z,3.65
2024-02-23T02:03:32.830Z,4.28
2024-02-23T02:08:37.482Z,5.85
2024-02-23T02:13:39.008Z,4.22
2024-02-23T02:18:40.516Z,3.83
2024-02-23T02:23:42.230Z,3.55
2024-02-23T02:28:43.730Z,3.25
2024-02-23T02:33:45.252Z,2.40
2024-02-23T02:38:46.765Z,2.50
2024-02-23T02:43:48.308Z,2.35
2024-02-23T02:48:49.874Z,4.60
2024-02-23T02:53:51.430Z,1.80
2024-02-23T02:58:52.941Z,2.75
2024-02-23T03:03:54.500Z,2.35
2024-02-23T03:08:56.009Z,3.65
2024-02-23T03:13:57.541Z,4.45
2024-02-23T03:18:59.277Z,5.15
2024-02-23T03:24:01.258Z,5.10
2024-02-23T03:29:02.886Z,4.20
2024-02-23T03:34:04.578Z,5.05
2024-02-23T03:39:06.746Z,4.60
2024-02-23T03:44:09.076Z,4.47
2024-02-23T03:49:10.708Z,3.78
2024-02-23T03:54:12.222Z,4.53
2024-02-23T03:59:13.775Z,4.15
2024-02-23T04:04:15.313Z,4.88
2024-02-23T04:09:16.855Z,3.97
2024-02-23T04:14:18.426Z,3.58
2024-02-23T04:19:19.985Z,2.47
2024-02-23T04:24:23.984Z,4.32
2024-02-23T04:29:26.810Z,2.70
2024-02-23T04:34:31.882Z,2.33
2024-02-23T04:39:33.382Z,2.97
2024-02-23T04:44:34.968Z,4.35
2024-02-23T04:49:36.553Z,3.38
2024-02-23T04:54:38.073Z,3.50
2024-02-23T04:59:39.594Z,3.40
2024-02-23T05:04:41.149Z,3.47
2024-02-23T05:09:42.652Z,3.45
2024-02-23T05:14:44.163Z,3.40
2024-02-23T05:19:47.581Z,3.35
2024-02-23T05:24:49.218Z,4.60
2024-02-23T05:29:50.817Z,3.38
2024-02-23T05:34:54.133Z,4.03
2024-02-23T05:39:55.862Z,3.40
2024-02-23T05:44:58.346Z,3.60
2024-02-23T05:49:59.850Z,4.63
2024-02-23T05:55:01.536Z,3.20
2024-02-23T06:00:03.163Z,2.45
2024-02-23T06:05:06.156Z,3.95
2024-02-23T06:10:08.299Z,4.10
2024-02-23T06:15:10.402Z,3.78
2024-02-23T06:20:12.227Z,4.00
2024-02-23T06:25:13.783Z,4.40
2024-02-23T06:30:15.323Z,3.25
2024-02-23T06:35:16.836Z,3.75
2024-02-23T06:40:19.362Z,2.75
2024-02-23T06:45:26.670Z,4.65
2024-02-23T06:50:28.219Z,2.97
2024-02-23T06:55:29.823Z,3.67
2024-02-23T07:00:31.834Z,2.95
2024-02-23T07:05:33.609Z,4.35
2024-02-23T07:10:35.269Z,3.05
2024-02-23T07:15:37.367Z,2.90
2024-02-23T07:20:39.486Z,2.30
2024-02-23T07:25:42.109Z,2.72
2024-02-23T07:30:44.676Z,3.58
2024-02-23T07:35:46.176Z,3.88
2024-02-23T07:40:47.689Z,3.20
2024-02-23T07:45:49.189Z,2.72
2024-02-23T07:50:50.699Z,2.97
2024-02-23T07:55:52.248Z,3.33
2024-02-23T08:00:54.393Z,2.20
2024-02-23T08:05:55.931Z,3.15
2024-02-23T08:10:57.552Z,3.15
2024-02-23T08:15:59.334Z,3.55
2024-02-23T08:21:03.277Z,4.82
2024-02-23T08:26:04.819Z,3.70
2024-02-23T08:31:06.381Z,4.32
2024-02-23T08:36:08.091Z,5.03
2024-02-23T08:41:10.001Z,5.22
2024-02-23T08:46:11.658Z,4.75
2024-02-23T08:51:13.213Z,4.72
2024-02-23T08:56:17.111Z,5.05
2024-02-23T09:01:18.663Z,4.72
2024-02-23T09:06:20.944Z,5.20
2024-02-23T09:11:23.455Z,4.60
2024-02-23T09:16:25.738Z,5.10
2024-02-23T09:21:27.269Z,5.65
2024-02-23T09:26:28.893Z,4.32
2024-02-23T09:31:30.880Z,5.30
2024-02-23T09:36:32.403Z,5.57
2024-02-23T09:41:35.416Z,5.00
2024-02-23T09:46:40.006Z,4.40
2024-02-23T09:51:41.498Z,4.13
2024-02-23T09:56:43.070Z,4.25
2024-02-23T10:01:44.684Z,3.50
2024-02-23T10:06:46.309Z,4.00
2024-02-23T10:11:53.166Z,4.45
2024-02-23T10:16:56.236Z,4.65
2024-02-23T10:26:59.576Z,3.83
2024-02-23T10:32:01.777Z,3.20
2024-02-23T10:37:03.532Z,4.05
2024-02-23T10:42:06.224Z,2.70
2024-02-23T10:47:07.750Z,3.10
2024-02-23T10:52:10.301Z,3.38
2024-02-23T10:57:11.831Z,2.30
2024-02-23T11:02:17.277Z,2.63
2024-02-23T11:07:22.248Z,2.83
2024-02-23T11:12:25.699Z,2.88
2024-02-23T11:17:27.948Z,2.63
2024-02-23T11:22:38.187Z,2.50
2024-02-23T11:27:43.397Z,2.55
2024-02-23T11:32:47.449Z,2.47
2024-02-23T11:37:50.088Z,2.97
2024-02-23T11:42:51.671Z,2.15
2024-02-23T11:47:53.451Z,2.17
2024-02-23T11:52:55.508Z,2.83
2024-02-23T11:58:01.968Z,2.58
2024-02-23T12:03:10.973Z,1.75
2024-02-23T12:08:12.627Z,1.88
2024-02-23T12:13:14.194Z,1.85
2024-02-23T12:18:15.790Z,1.92
2024-02-23T12:23:17.959Z,1.92
2024-02-23T12:28:19.740Z,2.05
2024-02-23T12:33:21.359Z,1.73
2024-02-23T12:38:23.426Z,2.45
2024-02-23T12:43:31.516Z,2.53
2024-02-23T12:48:33.062Z,1.92
2024-02-23T12:54:01.459Z,2.25
2024-02-23T12:59:03.023Z,2.28
2024-02-23T13:04:10.619Z,2.63
2024-02-23T13:09:14.486Z,1.80
2024-02-23T13:14:17.094Z,1.67
2024-02-23T13:19:18.895Z,1.90
2024-02-23T13:24:20.730Z,2.67
2024-02-23T13:29:23.324Z,2.30
2024-02-23T13:34:24.923Z,1.58
2024-02-23T13:39:26.529Z,2.85
2024-02-23T13:44:30.595Z,2.67
2024-02-23T13:49:36.351Z,1.60
2024-02-23T13:54:38.229Z,1.77
2024-02-23T13:59:39.873Z,2.03
2024-02-23T14:04:41.626Z,1.60
2024-02-23T14:09:46.662Z,1.10
2024-02-23T14:14:49.266Z,1.63
2024-02-23T14:19:52.055Z,1.75
2024-02-23T14:24:55.614Z,2.00
2024-02-23T14:29:58.672Z,1.77
2024-02-23T14:35:02.587Z,2.45
2024-02-23T14:40:04.686Z,2.10
2024-02-23T14:45:07.182Z,2.63
2024-02-23T14:50:09.834Z,2.58
2024-02-23T14:55:12.591Z,1.90
2024-02-23T15:00:14.633Z,1.73
2024-02-23T15:05:16.413Z,2.45
2024-02-23T15:10:18.053Z,2.70
2024-02-23T15:15:19.660Z,1.88
2024-02-23T15:20:21.423Z,2.42
2024-02-23T15:25:23.006Z,2.45
2024-02-23T15:30:25.817Z,2.15
2024-02-23T15:35:29.149Z,2.78
2024-02-23T15:40:30.897Z,2.63
2024-02-23T15:45:32.623Z,2.75
2024-02-23T15:50:50.369Z,2.67
2024-02-23T15:55:55.808Z,2.53
2024-02-23T16:00:57.713Z,2.08
2024-02-23T16:06:00.072Z,1.50
2024-02-23T16:11:01.791Z,3.05
2024-02-23T16:16:03.514Z,2.33
2024-02-23T16:21:05.547Z,3.28
2024-02-23T16:26:07.316Z,2.42
2024-02-23T16:31:08.894Z,2.10
2024-02-23T16:36:18.487Z,2.22
2024-02-23T16:41:20.386Z,1.90
2024-02-23T16:46:22.009Z,2.35
2024-02-23T16:51:23.762Z,1.83
2024-02-23T16:56:28.442Z,1.90
2024-02-23T17:01:30.170Z,1.85
2024-02-23T17:06:31.744Z,2.20
2024-02-23T17:11:33.427Z,2.17
2024-02-23T17:16:35.079Z,2.78
2024-02-23T17:21:36.741Z,1.88
2024-02-23T17:26:38.469Z,1.85
2024-02-23T17:31:40.096Z,2.00
2024-02-23T17:36:43.916Z,1.70
2024-02-23T17:41:47.862Z,1.70
2024-02-23T17:46:49.595Z,1.73
2024-02-23T17:51:53.605Z,1.60
2024-02-23T17:56:56.105Z,1.77
2024-02-23T18:01:57.698Z,1.45
2024-02-23T18:07:00.436Z,1.98
2024-02-23T18:12:02.210Z,1.30
2024-02-23T18:17:05.398Z,1.85
2024-02-23T18:27:08.744Z,1.65
2024-02-23T18:32:13.052Z,1.88
2024-02-23T18:37:14.698Z,2.42
2024-02-23T18:42:18.263Z,2.15
2024-02-23T18:47:19.836Z,2.58
2024-02-23T18:52:22.452Z,1.65
2024-02-23T18:57:23.951Z,2.05
2024-02-23T19:02:25.500Z,1.85
2024-02-23T19:07:27.070Z,1.30
2024-02-23T19:12:29.350Z,1.60
2024-02-23T19:17:36.030Z,1.02
2024-02-23T19:22:38.667Z,1.63
2024-02-23T19:27:40.960Z,1.73
2024-02-23T19:32:42.750Z,2.10
2024-02-23T19:37:52.356Z,1.77
2024-02-23T19:42:55.397Z,1.20
2024-02-23T19:47:57.013Z,1.10
2024-02-23T19:52:58.869Z,1.20
2024-02-23T19:58:03.145Z,1.55
2024-02-23T20:03:04.838Z,1.63
2024-02-23T20:08:07.052Z,1.33
2024-02-23T20:13:08.748Z,2.60
2024-02-23T20:18:10.451Z,1.83
2024-02-23T20:23:13.750Z,1.80
2024-02-23T20:28:15.401Z,1.83
2024-02-23T20:33:16.979Z,2.30
2024-02-23T20:38:18.559Z,2.85
2024-02-23T20:43:20.145Z,4.20
2024-02-23T20:48:21.892Z,2.33
2024-02-23T20:53:23.601Z,1.35
2024-02-23T20:58:25.185Z,1.60
2024-02-23T21:03:28.879Z,0.90
2024-02-23T21:08:30.478Z,1.00
2024-02-23T21:13:32.379Z,0.68
2024-02-23T21:18:37.002Z,1.15
2024-02-23T21:23:38.649Z,0.93
2024-02-23T21:28:40.453Z,1.33
2024-02-23T21:33:43.061Z,0.68
2024-02-23T21:38:45.226Z,0.80
2024-02-23T21:43:46.825Z,1.42
2024-02-23T21:48:49.719Z,0.93
2024-02-23T21:58:55.985Z,2.08
2024-02-23T22:03:58.194Z,0.75
2024-02-23T22:09:00.119Z,0.60
2024-02-23T22:14:01.742Z,1.30
2024-02-23T22:19:04.172Z,0.90
2024-02-23T22:24:05.847Z,1.00
2024-02-23T22:29:07.406Z,1.85
2024-02-23T22:34:09.036Z,1.40
2024-02-23T22:39:11.018Z,1.90
2024-02-23T22:44:13.897Z,1.58
2024-02-23T22:49:15.843Z,2.55
2024-02-23T22:54:17.547Z,2.60
2024-02-23T22:59:19.417Z,3.30
2024-02-23T23:04:21.078Z,2.92
2024-02-23T23:09:22.648Z,2.65
2024-02-23T23:14:24.366Z,2.60
2024-02-23T23:19:26.619Z,2.45
2024-02-23T23:24:29.251Z,2.38
2024-02-23T23:29:30.891Z,3.42
2024-02-23T23:34:32.713Z,2.55
2024-02-23T23:39:34.500Z,2.40
2024-02-23T23:44:36.202Z,2.38
2024-02-23T23:49:38.780Z,2.95
2024-02-23T23:54:43.059Z,2.53
2024-02-23T23:59:44.679Z,2.35
